Time;durP1;ratioP1;P1;durP2;ratioP2;P2;SDS_P1;SDS_P2;PMS_P1;PMS_P2;Temp;Humidity;BMP_temperature;BMP_pressure;BME280_temperature;BME280_humidity;BME280_pressure;Samples;Min_cycle;Max_cycle;Signal;HPM_P1;HPM_P2
2022/07/06 00:02:24;;;;;;;;;;;;;;;28.88;37.73;94807.75;5014920;28;7373;-63
2022/07/06 00:04:52;;;;;;;;;;;;;;;28.90;37.52;94810.75;5013246;28;6861;-63
2022/07/06 00:07:18;;;;;;;;;;;;;;;28.90;37.89;94814.28;5015287;28;9069;-63
2022/07/06 00:09:44;;;;;;;;;;;;;;;28.89;37.75;94818.31;4998197;28;7424;-63
2022/07/06 00:12:13;;;;;;;;;;;;;;;28.86;37.78;94819.34;5008549;28;7340;-63
2022/07/06 00:15:05;;;;;;;;;;;;;;;28.86;37.40;94816.56;4998996;28;7146;-63
2022/07/06 00:17:31;;;;;;;;;;;;;;;28.86;37.58;94813.78;4967608;28;7255;-63
2022/07/06 00:20:26;;;;;;;;;;;;;;;28.86;37.56;94811.03;4971892;28;7028;-63
2022/07/06 00:23:06;;;;;;;;;;;;;;;28.86;38.06;94807.53;4895608;29;9462;-63
2022/07/06 00:25:34;;;;;;;;;;;;;;;28.85;37.90;94804.00;4879393;29;9632;-63
2022/07/06 00:28:00;;;;;;;;;;;;;;;28.85;37.17;94803.25;4889865;29;7299;-63
2022/07/06 00:30:27;;;;;;;;;;;;;;;28.84;37.82;94808.03;4875393;29;7305;-63
2022/07/06 00:33:01;;;;;;;;;;;;;;;28.87;37.71;94809.78;4895557;29;7247;-63
2022/07/06 00:35:53;;;;;;;;;;;;;;;28.84;37.39;94805.25;4889346;29;7051;-63
2022/07/06 00:38:27;;;;;;;;;;;;;;;28.87;37.96;94803.47;4893269;29;7540;-63
2022/07/06 00:41:03;;;;;;;;;;;;;;;28.85;37.70;94803.25;4893312;29;7058;-63
2022/07/06 00:43:48;;;;;;;;;;;;;;;28.83;37.62;94801.00;4890210;29;7255;-63
2022/07/06 00:46:15;;;;;;;;;;;;;;;28.82;38.14;94807.81;4889432;29;7166;-63
2022/07/06 00:48:43;;;;;;;;;;;;;;;28.82;37.99;94796.72;4870785;29;7468;-63
2022/07/06 00:51:13;;;;;;;;;;;;;;;28.83;37.87;94794.72;4890487;29;7834;-63
2022/07/06 00:53:41;;;;;;;;;;;;;;;28.86;38.14;94791.66;4876535;29;9369;-63
2022/07/06 00:56:08;;;;;;;;;;;;;;;28.85;37.97;94792.94;4906333;29;7248;-63
2022/07/06 00:58:38;;;;;;;;;;;;;;;28.86;37.83;94786.09;4926909;28;7067;-63
2022/07/06 01:01:14;;;;;;;;;;;;;;;28.90;38.22;94786.59;4996179;28;7217;-63
2022/07/06 01:03:42;;;;;;;;;;;;;;;28.94;37.98;94794.59;5016740;28;9090;-63
2022/07/06 01:06:08;;;;;;;;;;;;;;;28.95;38.10;94782.22;4994323;28;7034;-63
2022/07/06 01:08:34;;;;;;;;;;;;;;;28.92;37.84;94777.75;5013934;28;7209;-63
2022/07/06 01:11:03;;;;;;;;;;;;;;;28.91;37.81;94784.53;5002514;28;7187;-63
2022/07/06 01:13:41;;;;;;;;;;;;;;;28.92;37.66;94784.03;4998184;28;7225;-63
2022/07/06 01:16:09;;;;;;;;;;;;;;;28.93;37.88;94777.22;4996620;28;7228;-63
2022/07/06 01:18:50;;;;;;;;;;;;;;;28.91;37.79;94776.22;5007857;28;7084;-63
2022/07/06 01:21:19;;;;;;;;;;;;;;;28.92;37.85;94778.50;4997113;28;9525;-63
2022/07/06 01:23:47;;;;;;;;;;;;;;;28.93;37.55;94774.44;4994369;28;9416;-63
2022/07/06 01:26:19;;;;;;;;;;;;;;;28.94;37.96;94777.97;5011453;28;9013;-63
2022/07/06 01:28:46;;;;;;;;;;;;;;;28.92;37.98;94777.75;4995025;28;6976;-63
2022/07/06 01:31:24;;;;;;;;;;;;;;;28.94;37.87;94781.50;5001688;28;7307;-63
2022/07/06 01:33:54;;;;;;;;;;;;;;;28.97;37.57;94779.69;5008322;28;7059;-63
2022/07/06 01:36:32;;;;;;;;;;;;;;;28.97;37.82;94783.19;5009071;28;6967;-63
2022/07/06 01:39:10;;;;;;;;;;;;;;;28.95;37.98;94780.19;5006075;28;7270;-63
2022/07/06 01:41:48;;;;;;;;;;;;;;;28.93;38.33;94784.75;4991007;28;6994;-63
2022/07/06 01:44:15;;;;;;;;;;;;;;;28.92;37.78;94784.03;5013301;28;7638;-63
2022/07/06 01:46:41;;;;;;;;;;;;;;;28.96;37.93;94789.25;4988088;28;6983;-63
2022/07/06 01:49:07;;;;;;;;;;;;;;;28.97;37.54;94780.41;5004765;28;6954;-63
2022/07/06 01:51:35;;;;;;;;;;;;;;;28.98;37.65;94778.41;4995177;28;7174;-63
2022/07/06 01:54:01;;;;;;;;;;;;;;;28.99;37.66;94788.22;5007215;28;7366;-63
2022/07/06 01:56:29;;;;;;;;;;;;;;;28.98;37.94;94787.47;4990398;28;6994;-63
2022/07/06 01:58:57;;;;;;;;;;;;;;;28.98;37.56;94792.25;4991987;28;8775;-63
2022/07/06 02:01:23;;;;;;;;;;;;;;;29.00;38.26;94793.22;4978002;28;9100;-63
2022/07/06 02:03:49;;;;;;;;;;;;;;;29.01;37.55;94791.22;4981000;28;7179;-63
2022/07/06 02:06:16;;;;;;;;;;;;;;;28.99;37.89;94786.19;5014714;28;9047;-63
2022/07/06 02:08:42;;;;;;;;;;;;;;;29.00;37.54;94790.47;4998859;28;7085;-63
2022/07/06 02:11:15;;;;;;;;;;;;;;;29.01;37.69;94796.75;4994322;28;7175;-63
2022/07/06 02:14:14;;;;;;;;;;;;;;;29.01;37.98;94794.72;5000543;28;9079;-63
2022/07/06 02:16:54;;;;;;;;;;;;;;;29.00;37.63;94801.53;4959173;28;9603;-63
2022/07/06 02:19:21;;;;;;;;;;;;;;;29.00;37.90;94793.22;4957788;28;7277;-63
2022/07/06 02:21:48;;;;;;;;;;;;;;;29.00;37.58;94787.69;4947506;28;7241;-63
2022/07/06 02:24:29;;;;;;;;;;;;;;;29.01;37.61;94789.19;4945547;28;9106;-63
2022/07/06 02:27:08;;;;;;;;;;;;;;;29.02;37.69;94787.16;4959998;28;9365;-63
2022/07/06 02:29:35;;;;;;;;;;;;;;;28.99;37.75;94783.41;4961902;28;7496;-63
2022/07/06 02:32:10;;;;;;;;;;;;;;;28.99;37.61;94782.69;4962616;28;7243;-63
2022/07/06 02:34:37;;;;;;;;;;;;;;;28.97;37.80;94785.97;4966470;28;9374;-63
2022/07/06 02:37:08;;;;;;;;;;;;;;;28.95;38.31;94780.19;4947951;28;9239;-63
2022/07/06 02:39:46;;;;;;;;;;;;;;;28.96;37.89;94790.03;4960533;28;6953;-63
2022/07/06 02:42:34;;;;;;;;;;;;;;;28.96;38.14;94781.72;4963870;28;9024;-63
2022/07/06 02:45:02;;;;;;;;;;;;;;;28.98;38.07;94784.69;4952463;28;7267;-63
2022/07/06 02:47:29;;;;;;;;;;;;;;;28.96;37.49;94789.25;4966187;28;9102;-63
2022/07/06 02:49:55;;;;;;;;;;;;;;;28.96;37.57;94786.50;4943856;28;6993;-63
2022/07/06 02:52:28;;;;;;;;;;;;;;;28.97;38.01;94796.31;4967439;28;7266;-63
2022/07/06 02:54:57;;;;;;;;;;;;;;;28.96;38.10;94790.03;4998625;28;9465;-63
2022/07/06 02:57:24;;;;;;;;;;;;;;;28.95;37.54;94777.44;4997355;28;9274;-63
2022/07/06 02:59:56;;;;;;;;;;;;;;;28.96;38.15;94790.03;4994746;28;8835;-63
2022/07/06 03:02:30;;;;;;;;;;;;;;;28.95;37.99;94793.28;4995657;28;7507;-63
2022/07/06 03:04:56;;;;;;;;;;;;;;;28.96;37.75;94794.81;5002618;28;7524;-62
2022/07/06 03:07:22;;;;;;;;;;;;;;;28.94;37.73;94798.09;4997644;28;6949;-63
2022/07/06 03:09:48;;;;;;;;;;;;;;;28.96;38.34;94801.09;4997204;28;8358;-63
2022/07/06 03:12:15;;;;;;;;;;;;;;;28.96;38.30;94803.09;5002114;28;8208;-63
2022/07/06 03:14:42;;;;;;;;;;;;;;;28.91;38.34;94801.91;5017338;28;7162;-63
2022/07/06 03:17:11;;;;;;;;;;;;;;;28.87;38.09;94800.69;4980443;28;6992;-63
2022/07/06 03:19:40;;;;;;;;;;;;;;;28.87;38.20;94798.69;4991841;28;7024;-63
2022/07/06 03:22:08;;;;;;;;;;;;;;;28.87;38.03;94807.00;4994670;28;7332;-63
2022/07/06 03:24:34;;;;;;;;;;;;;;;28.85;37.95;94804.00;5009869;28;9340;-63
2022/07/06 03:27:01;;;;;;;;;;;;;;;28.89;37.97;94812.00;5004064;28;7067;-63
2022/07/06 03:29:28;;;;;;;;;;;;;;;28.87;38.37;94801.47;4999084;28;7350;-63
2022/07/06 03:31:56;;;;;;;;;;;;;;;28.88;38.15;94805.00;5011034;28;6979;-63
2022/07/06 03:34:25;;;;;;;;;;;;;;;28.88;37.79;94800.16;5003292;28;7363;-63
2022/07/06 03:36:54;;;;;;;;;;;;;;;28.87;38.30;94804.22;5018669;28;6975;-63
2022/07/06 03:39:24;;;;;;;;;;;;;;;28.89;37.95;94807.22;5016707;28;7269;-63
2022/07/06 03:41:57;;;;;;;;;;;;;;;28.86;38.02;94802.72;4993915;28;6988;-63
2022/07/06 03:44:23;;;;;;;;;;;;;;;28.85;38.04;94809.53;4998587;28;7199;-63
2022/07/06 03:46:50;;;;;;;;;;;;;;;28.85;38.43;94814.31;5011727;28;7155;-63
2022/07/06 03:49:20;;;;;;;;;;;;;;;28.85;38.09;94812.31;5002903;28;7209;-63
2022/07/06 03:51:56;;;;;;;;;;;;;;;28.84;38.31;94810.81;5013383;28;7082;-63
2022/07/06 03:54:25;;;;;;;;;;;;;;;28.81;38.57;94805.56;4996548;28;9064;-63
2022/07/06 03:57:02;;;;;;;;;;;;;;;28.80;38.33;94804.81;5012674;28;8611;-63
2022/07/06 03:59:29;;;;;;;;;;;;;;;28.81;38.77;94811.88;5014406;28;7040;-63
2022/07/06 04:01:57;;;;;;;;;;;;;;;28.81;38.42;94811.88;5011851;28;6998;-63
2022/07/06 04:04:44;;;;;;;;;;;;;;;28.83;38.43;94805.78;5017765;28;9317;-63
2022/07/06 04:07:10;;;;;;;;;;;;;;;28.82;38.29;94807.81;5017695;28;7475;-63
2022/07/06 04:09:36;;;;;;;;;;;;;;;28.85;38.22;94806.78;5012386;28;7258;-63
2022/07/06 04:12:03;;;;;;;;;;;;;;;28.84;38.39;94799.72;4999835;28;7175;-63
2022/07/06 04:14:40;;;;;;;;;;;;;;;28.84;38.09;94802.50;5017346;28;7293;-63
2022/07/06 04:20:09;;;;;;;;;;;;;;;28.86;38.24;94807.53;5007952;28;9049;-63
2022/07/06 04:22:46;;;;;;;;;;;;;;;28.86;38.54;94799.94;4995780;28;6883;-63
2022/07/06 04:25:14;;;;;;;;;;;;;;;28.87;38.44;94803.47;4985192;28;7191;-63
2022/07/06 04:27:41;;;;;;;;;;;;;;;28.87;38.20;94806.25;4997255;28;7172;-63
2022/07/06 04:30:09;;;;;;;;;;;;;;;28.86;38.17;94805.50;4991461;28;9447;-63
2022/07/06 04:32:41;;;;;;;;;;;;;;;28.86;38.27;94815.84;4996352;28;7144;-63
2022/07/06 04:35:09;;;;;;;;;;;;;;;28.85;37.67;94817.84;4990787;28;7139;-64
2022/07/06 04:37:35;;;;;;;;;;;;;;;28.84;38.05;94813.56;4998504;28;8367;-63
2022/07/06 04:40:01;;;;;;;;;;;;;;;28.84;38.28;94810.06;5017976;28;9388;-63
2022/07/06 04:42:28;;;;;;;;;;;;;;;28.83;38.32;94823.16;4997113;28;6958;-64
2022/07/06 04:45:05;;;;;;;;;;;;;;;28.77;38.70;94813.44;4996911;28;9031;-63
2022/07/06 04:47:45;;;;;;;;;;;;;;;28.75;38.34;94818.75;5000102;28;7066;-63
2022/07/06 04:50:21;;;;;;;;;;;;;;;28.75;38.74;94821.50;4999467;28;9021;-63
2022/07/06 04:52:51;;;;;;;;;;;;;;;28.71;38.44;94819.00;5011164;28;9407;-63
2022/07/06 04:55:18;;;;;;;;;;;;;;;28.75;38.41;94813.94;5009357;28;6867;-63
2022/07/06 04:57:46;;;;;;;;;;;;;;;28.73;38.67;94810.94;4994715;28;7004;-63
2022/07/06 05:00:13;;;;;;;;;;;;;;;28.74;38.50;94806.91;5011013;28;7270;-63
2022/07/06 05:02:39;;;;;;;;;;;;;;;28.74;38.63;94812.44;4998510;28;7561;-63
2022/07/06 05:05:05;;;;;;;;;;;;;;;28.73;38.14;94808.16;5007006;28;7131;-63
2022/07/06 05:07:33;;;;;;;;;;;;;;;28.72;38.23;94815.00;4990559;28;7234;-63
2022/07/06 05:09:59;;;;;;;;;;;;;;;28.72;38.28;94809.44;4995854;28;6975;-63
2022/07/06 05:12:32;;;;;;;;;;;;;;;28.73;38.68;94810.94;5015011;28;7407;-64
2022/07/06 05:14:59;;;;;;;;;;;;;;;28.71;38.23;94807.22;4992736;28;8724;-65
2022/07/06 05:17:26;;;;;;;;;;;;;;;28.71;38.21;94812.75;4985491;28;7755;-63
2022/07/06 05:20:00;;;;;;;;;;;;;;;28.65;38.74;94820.34;5019101;28;7166;-63
2022/07/06 05:22:27;;;;;;;;;;;;;;;28.63;38.43;94812.56;5024572;28;7196;-64
2022/07/06 05:24:53;;;;;;;;;;;;;;;28.66;39.23;94813.56;4995079;28;8015;-63
2022/07/06 05:27:20;;;;;;;;;;;;;;;28.67;38.53;94823.34;5005708;28;6999;-64
2022/07/06 05:30:20;;;;;;;;;;;;;;;28.64;38.81;94814.09;5013644;28;7862;-63
2022/07/06 05:33:01;;;;;;;;;;;;;;;28.60;38.37;94805.31;4917195;29;6986;-63
2022/07/06 05:35:27;;;;;;;;;;;;;;;28.59;38.51;94816.91;4925161;29;7408;-64
2022/07/06 05:37:55;;;;;;;;;;;;;;;28.58;39.00;94810.63;4931521;28;9047;-63
2022/07/06 05:40:21;;;;;;;;;;;;;;;28.57;38.81;94817.44;4916944;28;7042;-64
2022/07/06 05:43:00;;;;;;;;;;;;;;;28.57;38.58;94819.41;4932744;28;7752;-64
2022/07/06 05:45:55;;;;;;;;;;;;;;;28.58;39.21;94816.16;4926463;29;9506;-64
2022/07/06 05:51:15;;;;;;;;;;;;;;;28.59;38.76;94819.66;4880485;29;7245;-63
2022/07/06 05:53:43;;;;;;;;;;;;;;;28.54;39.05;94815.66;4881303;29;7352;-63
2022/07/06 05:56:20;;;;;;;;;;;;;;;28.55;38.77;94819.94;4878199;29;7306;-63
2022/07/06 05:58:47;;;;;;;;;;;;;;;28.57;37.85;94819.41;4868430;29;9631;-63
2022/07/06 06:01:13;;;;;;;;;;;;;;;28.56;38.07;94829.72;4873210;29;7321;-63
2022/07/06 06:03:39;;;;;;;;;;;;;;;28.54;38.10;94828.75;4881976;29;7508;-63
2022/07/06 06:06:05;;;;;;;;;;;;;;;28.54;37.71;94831.50;4880140;29;7455;-63
2022/07/06 06:08:31;;;;;;;;;;;;;;;28.54;37.78;94832.28;4884566;29;7121;-63
2022/07/06 06:10:57;;;;;;;;;;;;;;;28.52;37.80;94829.28;4908421;28;7293;-63
2022/07/06 06:13:27;;;;;;;;;;;;;;;28.51;37.89;94830.56;4939047;28;6989;-63
2022/07/06 06:16:13;;;;;;;;;;;;;;;28.54;38.00;94832.28;4915125;28;7412;-63
2022/07/06 06:18:47;;;;;;;;;;;;;;;28.53;37.61;94835.56;4936986;28;8185;-63
2022/07/06 06:21:20;;;;;;;;;;;;;;;28.54;37.59;94832.28;4925885;29;7132;-63
2022/07/06 06:24:14;;;;;;;;;;;;;;;28.53;37.88;94841.84;4919509;28;7232;-63
2022/07/06 06:26:49;;;;;;;;;;;;;;;28.52;37.22;94842.34;4970031;28;8688;-63
2022/07/06 06:29:15;;;;;;;;;;;;;;;28.53;38.27;94841.09;4941875;28;6984;-63
2022/07/06 06:31:51;;;;;;;;;;;;;;;28.52;37.90;94843.13;4951900;28;8792;-63
2022/07/06 06:34:30;;;;;;;;;;;;;;;28.51;38.28;94844.41;4954930;28;7397;-63
2022/07/06 06:37:18;;;;;;;;;;;;;;;28.54;38.13;94840.56;4968555;28;9250;-63
2022/07/06 06:39:59;;;;;;;;;;;;;;;28.52;37.72;94840.34;4970590;28;7455;-62
2022/07/06 06:42:27;;;;;;;;;;;;;;;28.55;39.33;94842.09;4963845;28;8863;-63
2022/07/06 06:44:54;;;;;;;;;;;;;;;28.56;40.20;94849.09;4939770;28;9212;-62
2022/07/06 06:47:20;;;;;;;;;;;;;;;28.58;38.86;94843.09;4968254;28;8987;-63
2022/07/06 06:49:55;;;;;;;;;;;;;;;28.56;38.25;94843.56;4969372;28;7319;-63
2022/07/06 06:52:54;;;;;;;;;;;;;;;28.57;38.24;94841.56;4968301;28;7294;-63
2022/07/06 06:55:30;;;;;;;;;;;;;;;28.56;38.59;94842.84;4887924;29;7297;-63
2022/07/06 06:58:17;;;;;;;;;;;;;;;28.57;38.05;94839.56;4891279;29;7821;-63
2022/07/06 07:00:58;;;;;;;;;;;;;;;28.55;37.58;94836.56;4894196;29;7188;-63
2022/07/06 07:03:35;;;;;;;;;;;;;;;28.53;38.10;94841.84;4907380;29;8912;-63
2022/07/06 07:06:01;;;;;;;;;;;;;;;28.55;38.10;94833.03;4933683;28;7255;-63
2022/07/06 07:08:27;;;;;;;;;;;;;;;28.53;38.16;94830.78;4936947;29;9200;-63
2022/07/06 07:10:53;;;;;;;;;;;;;;;28.53;37.96;94836.31;4928434;28;7202;-63
2022/07/06 07:13:19;;;;;;;;;;;;;;;28.53;37.83;94830.78;4939052;28;9352;-63
2022/07/06 07:15:45;;;;;;;;;;;;;;;28.52;37.92;94829.28;4931748;29;7479;-63
2022/07/06 07:18:11;;;;;;;;;;;;;;;28.51;37.64;94827.78;4935471;28;9161;-63
2022/07/06 07:20:39;;;;;;;;;;;;;;;28.52;38.18;94834.06;4915280;29;7383;-63
2022/07/06 07:23:05;;;;;;;;;;;;;;;28.51;38.09;94816.72;4933284;28;7275;-63
2022/07/06 07:25:31;;;;;;;;;;;;;;;28.53;38.27;94828.03;4941746;28;7423;-63
2022/07/06 07:27:59;;;;;;;;;;;;;;;28.53;38.15;94828.03;4935263;28;7228;-63
2022/07/06 07:30:56;;;;;;;;;;;;;;;28.58;37.79;94816.16;4908030;29;7327;-63
2022/07/06 07:33:22;;;;;;;;;;;;;;;28.61;37.88;94825.44;4947182;29;10085;-63
2022/07/06 07:35:48;;;;;;;;;;;;;;;28.63;37.51;94823.66;4929384;29;9600;-63
2022/07/06 07:38:14;;;;;;;;;;;;;;;28.64;37.58;94825.16;4943288;28;6990;-63
2022/07/06 07:40:40;;;;;;;;;;;;;;;28.63;37.86;94823.66;4929591;29;7414;-63
2022/07/06 07:43:06;;;;;;;;;;;;;;;28.64;37.28;94827.94;4945713;28;7263;-63
2022/07/06 07:45:43;;;;;;;;;;;;;;;28.66;38.04;94824.63;4946726;29;6986;-63
2022/07/06 07:48:11;;;;;;;;;;;;;;;28.67;37.58;94829.63;4949584;29;9930;-63
2022/07/06 07:50:48;;;;;;;;;;;;;;;28.67;37.97;94826.88;4948367;28;7313;-63
2022/07/06 07:53:14;;;;;;;;;;;;;;;28.67;37.32;94821.34;4944564;28;7322;-63
2022/07/06 07:55:40;;;;;;;;;;;;;;;28.68;37.26;94816.56;4947924;28;7699;-63
2022/07/06 07:58:06;;;;;;;;;;;;;;;28.68;37.71;94820.06;4929770;29;6979;-63
2022/07/06 08:00:34;;;;;;;;;;;;;;;28.68;37.48;94824.84;4942211;28;9118;-63
2022/07/06 08:03:00;;;;;;;;;;;;;;;28.68;37.43;94824.84;4919697;28;7212;-63
2022/07/06 08:05:26;;;;;;;;;;;;;;;28.68;37.51;94824.84;4934754;29;7116;-63
2022/07/06 08:07:52;;;;;;;;;;;;;;;28.68;37.11;94825.63;4922129;29;9041;-63
2022/07/06 08:10:19;;;;;;;;;;;;;;;28.67;37.26;94826.13;4971416;28;9425;-63
2022/07/06 08:12:45;;;;;;;;;;;;;;;28.68;37.36;94825.63;4996187;28;7152;-63
2022/07/06 08:15:12;;;;;;;;;;;;;;;28.68;37.49;94825.63;5017516;28;7518;-63
2022/07/06 08:17:39;;;;;;;;;;;;;;;28.69;37.31;94834.66;4995682;28;7297;-63
2022/07/06 08:20:06;;;;;;;;;;;;;;;28.69;37.68;94832.63;5004171;28;7256;-63
2022/07/06 08:22:35;;;;;;;;;;;;;;;28.68;37.48;94825.63;5016876;28;6992;-63
2022/07/06 08:25:01;;;;;;;;;;;;;;;28.70;37.13;94822.31;4998800;28;7204;-63
2022/07/06 08:27:27;;;;;;;;;;;;;;;28.70;37.29;94827.84;5015541;28;9087;-63
2022/07/06 08:29:55;;;;;;;;;;;;;;;28.69;37.31;94821.56;5010546;28;7233;-63
2022/07/06 08:32:21;;;;;;;;;;;;;;;28.69;37.12;94826.34;5013827;28;9084;-63
2022/07/06 08:34:50;;;;;;;;;;;;;;;28.71;36.57;94827.31;5008725;28;9094;-63
2022/07/06 08:37:15;;;;;;;;;;;;;;;28.71;37.33;94832.13;5019852;28;7074;-63
2022/07/06 08:39:47;;;;;;;;;;;;;;;28.72;36.86;94831.59;5020241;28;7233;-63
2022/07/06 08:42:16;;;;;;;;;;;;;;;28.73;36.92;94835.84;4998226;28;7064;-63
2022/07/06 08:44:43;;;;;;;;;;;;;;;28.72;37.29;94837.13;5005156;28;9823;-63
2022/07/06 08:47:11;;;;;;;;;;;;;;;28.73;37.18;94843.44;4997708;28;6985;-63
2022/07/06 08:49:38;;;;;;;;;;;;;;;28.72;37.06;94837.13;5012079;28;7377;-63
2022/07/06 08:52:12;;;;;;;;;;;;;;;28.74;37.28;94839.38;4995563;28;7133;-63
2022/07/06 08:54:43;;;;;;;;;;;;;;;28.74;36.98;94850.44;5009615;28;7524;-63
2022/07/06 08:57:18;;;;;;;;;;;;;;;28.72;37.36;94842.66;4998275;28;7005;-63
2022/07/06 08:59:44;;;;;;;;;;;;;;;28.73;36.94;94843.44;5008981;28;8828;-63
2022/07/06 09:02:13;;;;;;;;;;;;;;;28.73;37.16;94843.44;5013286;28;9065;-63
2022/07/06 09:04:59;;;;;;;;;;;;;;;28.77;36.92;94855.72;5015754;28;7144;-63
2022/07/06 09:07:31;;;;;;;;;;;;;;;28.77;37.12;94849.41;5020304;28;9038;-63
2022/07/06 09:09:59;;;;;;;;;;;;;;;28.76;37.25;94848.66;5009360;28;9592;-63
2022/07/06 09:12:30;;;;;;;;;;;;;;;28.78;36.95;94856.44;5005360;28;9483;-63
2022/07/06 09:15:00;;;;;;;;;;;;;;;28.75;36.98;94849.19;4997053;28;7124;-63
2022/07/06 09:17:29;;;;;;;;;;;;;;;28.74;37.24;94851.19;5013123;28;7175;-63
2022/07/06 09:20:09;;;;;;;;;;;;;;;28.73;37.22;94860.03;4992340;28;7281;-63
2022/07/06 09:22:42;;;;;;;;;;;;;;;28.69;37.26;94852.00;4983295;28;9082;-63
2022/07/06 09:25:14;;;;;;;;;;;;;;;28.71;37.27;94859.81;4997969;28;9160;-63
2022/07/06 09:27:49;;;;;;;;;;;;;;;28.71;37.22;94857.03;5003616;28;9750;-63
2022/07/06 09:30:28;;;;;;;;;;;;;;;28.65;37.79;94853.56;5002073;28;8791;-63
2022/07/06 09:32:59;;;;;;;;;;;;;;;28.73;37.76;94862.81;4997065;28;9139;-62
2022/07/06 09:35:28;;;;;;;;;;;;;;;28.90;37.24;94863.34;5008967;28;7465;-62
2022/07/06 09:38:34;;;;;;;;;;;;;;;29.03;37.07;94858.66;4994901;28;7143;-62
2022/07/06 09:41:02;;;;;;;;;;;;;;;29.07;37.00;94861.88;4947103;28;7316;-62
2022/07/06 09:43:34;;;;;;;;;;;;;;;29.05;36.92;94863.69;4944419;28;7234;-62
2022/07/06 09:46:03;;;;;;;;;;;;;;;28.99;37.28;94860.97;4951080;28;7097;-62
2022/07/06 09:48:30;;;;;;;;;;;;;;;28.97;37.38;94869.03;4949367;28;7354;-62
2022/07/06 09:51:08;;;;;;;;;;;;;;;28.97;36.63;94863.50;4947966;28;8759;-62
2022/07/06 09:53:37;;;;;;;;;;;;;;;28.95;36.58;94865.28;4945338;28;7421;-62
2022/07/06 09:56:05;;;;;;;;;;;;;;;28.94;36.90;94863.81;4953790;28;7255;-62
2022/07/06 09:58:40;;;;;;;;;;;;;;;28.93;37.28;94857.50;4942543;28;9205;-62
2022/07/06 10:01:26;;;;;;;;;;;;;;;28.93;36.51;94863.06;4932399;28;7303;-62
2022/07/06 10:03:52;;;;;;;;;;;;;;;28.91;37.38;94862.81;4939663;28;9374;-62
2022/07/06 10:06:18;;;;;;;;;;;;;;;28.92;37.48;94863.59;4951897;28;8744;-62
2022/07/06 10:08:47;;;;;;;;;;;;;;;28.90;37.28;94858.56;4936119;28;7020;-62
2022/07/06 10:11:15;;;;;;;;;;;;;;;28.93;38.28;94854.75;4950970;28;7180;-62
2022/07/06 10:13:44;;;;;;;;;;;;;;;28.94;38.80;94853.50;4950476;28;8742;-62
2022/07/06 10:16:13;;;;;;;;;;;;;;;28.93;38.57;94857.50;4977013;28;9444;-62
2022/07/06 10:18:43;;;;;;;;;;;;;;;28.93;38.34;94854.00;4974706;28;7294;-62
2022/07/06 10:21:10;;;;;;;;;;;;;;;28.93;38.93;94862.28;4992600;28;8149;-62
2022/07/06 10:23:39;;;;;;;;;;;;;;;28.93;39.33;94856.75;5011120;28;7163;-62
2022/07/06 10:26:14;;;;;;;;;;;;;;;28.94;39.34;94864.56;4993673;28;8703;-62
2022/07/06 10:28:42;;;;;;;;;;;;;;;28.95;38.58;94859.75;4982807;28;7191;-62
2022/07/06 10:31:15;;;;;;;;;;;;;;;28.94;38.32;94850.72;4991403;28;9112;-62
2022/07/06 10:33:45;;;;;;;;;;;;;;;28.94;38.75;94847.94;5007370;28;7251;-62
2022/07/06 10:36:13;;;;;;;;;;;;;;;28.93;38.18;94854.75;5006027;28;9130;-62
2022/07/06 10:38:39;;;;;;;;;;;;;;;28.94;37.98;94847.19;4982486;28;7265;-62
2022/07/06 10:41:07;;;;;;;;;;;;;;;28.93;37.77;94840.91;4997462;28;7101;-62
2022/07/06 10:43:42;;;;;;;;;;;;;;;28.94;38.00;94844.44;5010704;28;7424;-62
2022/07/06 10:46:11;;;;;;;;;;;;;;;28.96;38.52;94839.88;4997199;28;7214;-62
2022/07/06 10:48:42;;;;;;;;;;;;;;;28.96;38.13;94844.66;5013675;28;7159;-62
2022/07/06 10:51:11;;;;;;;;;;;;;;;28.96;38.19;94841.88;5001764;28;7293;-62
2022/07/06 10:53:39;;;;;;;;;;;;;;;28.97;38.36;94835.81;5009052;28;7482;-62
2022/07/06 10:56:08;;;;;;;;;;;;;;;28.97;37.50;94841.34;4996843;28;9641;-61
2022/07/06 10:58:46;;;;;;;;;;;;;;;28.99;37.91;94833.25;5006896;28;9161;-62
2022/07/06 11:01:14;;;;;;;;;;;;;;;29.00;37.83;94832.00;5006594;28;7100;-62
2022/07/06 11:03:51;;;;;;;;;;;;;;;28.99;37.77;94824.22;4993197;28;7482;-62
2022/07/06 11:06:26;;;;;;;;;;;;;;;29.00;38.02;94834.03;5006077;28;7118;-62
2022/07/06 11:09:02;;;;;;;;;;;;;;;29.01;37.67;94841.78;4990556;28;6984;-61
2022/07/06 11:11:31;;;;;;;;;;;;;;;29.01;37.74;94841.78;4992472;28;7171;-62
2022/07/06 11:14:08;;;;;;;;;;;;;;;29.01;37.61;94844.56;5000428;28;7084;-62
2022/07/06 11:16:38;;;;;;;;;;;;;;;29.03;37.16;94833.75;5009285;28;7958;-62
2022/07/06 11:19:16;;;;;;;;;;;;;;;29.03;37.16;94833.75;5009376;28;7229;-62
2022/07/06 11:21:51;;;;;;;;;;;;;;;29.03;37.73;94836.50;5009441;28;7128;-61
2022/07/06 11:24:39;;;;;;;;;;;;;;;29.05;37.14;94830.44;4985649;28;7331;-62
2022/07/06 11:27:06;;;;;;;;;;;;;;;29.03;37.73;94828.19;4992456;28;7222;-62
2022/07/06 11:29:39;;;;;;;;;;;;;;;29.05;37.76;94828.44;5004283;28;8784;-62
2022/07/06 11:32:10;;;;;;;;;;;;;;;29.08;37.17;94832.91;5009669;28;6961;-62
2022/07/06 11:34:44;;;;;;;;;;;;;;;29.06;37.19;94827.13;4994809;28;6919;-62
2022/07/06 11:37:26;;;;;;;;;;;;;;;29.08;37.19;94821.81;5007811;28;7237;-62
2022/07/06 11:39:52;;;;;;;;;;;;;;;29.09;37.11;94825.34;4998716;28;7622;-62
2022/07/06 11:42:21;;;;;;;;;;;;;;;29.10;37.04;94822.03;4992890;28;6849;-62
2022/07/06 11:44:53;;;;;;;;;;;;;;;29.13;37.01;94822.25;4990445;28;9062;-61
2022/07/06 11:47:30;;;;;;;;;;;;;;;29.14;37.34;94824.53;4996185;28;7728;-62
2022/07/06 11:49:57;;;;;;;;;;;;;;;29.15;36.96;94816.94;5008442;28;9267;-62
2022/07/06 11:52:23;;;;;;;;;;;;;;;29.16;37.51;94812.91;5006876;28;7107;-61
2022/07/06 11:55:01;;;;;;;;;;;;;;;29.17;36.79;94820.00;4985931;28;7593;-62
2022/07/06 11:57:33;;;;;;;;;;;;;;;29.19;37.05;94823.00;4997311;28;7214;-62
2022/07/06 11:59:59;;;;;;;;;;;;;;;29.18;36.63;94815.94;4990992;28;7255;-62
2022/07/06 12:02:26;;;;;;;;;;;;;;;29.18;37.22;94816.69;4995456;28;7005;-62
2022/07/06 12:04:55;;;;;;;;;;;;;;;29.18;36.99;94822.22;5008056;28;7510;-61
2022/07/06 12:07:21;;;;;;;;;;;;;;;29.21;37.49;94820.44;4996937;28;7250;-62
2022/07/06 12:09:47;;;;;;;;;;;;;;;29.23;37.62;94817.91;4997688;28;7622;-61
2022/07/06 12:12:16;;;;;;;;;;;;;;;29.24;37.17;94816.59;5018278;28;9376;-61
2022/07/06 12:14:43;;;;;;;;;;;;;;;29.24;37.43;94813.84;4997937;28;7431;-61
2022/07/06 12:17:11;;;;;;;;;;;;;;;29.24;37.31;94820.13;5017453;28;8480;-61
2022/07/06 12:19:38;;;;;;;;;;;;;;;29.24;37.24;94819.38;4995596;28;7011;-61
2022/07/06 12:22:28;;;;;;;;;;;;;;;29.26;37.92;94819.59;4995762;28;9377;-61
2022/07/06 12:24:54;;;;;;;;;;;;;;;29.27;38.15;94821.88;4998524;28;7054;-61
2022/07/06 12:27:34;;;;;;;;;;;;;;;29.29;38.27;94821.31;4990421;28;7201;-61
2022/07/06 12:30:16;;;;;;;;;;;;;;;29.29;38.03;94818.56;5016843;28;7298;-61
2022/07/06 12:32:42;;;;;;;;;;;;;;;29.29;38.78;94813.78;5004734;28;7254;-61
2022/07/06 12:35:11;;;;;;;;;;;;;;;29.30;37.92;94809.72;5011775;28;7606;-61
2022/07/06 12:37:37;;;;;;;;;;;;;;;29.31;38.83;94813.25;5013463;28;9122;-61
2022/07/06 12:40:13;;;;;;;;;;;;;;;29.31;38.48;94805.69;5011115;28;7307;-61
2022/07/06 12:42:49;;;;;;;;;;;;;;;29.32;37.96;94798.84;5014399;28;9492;-62
2022/07/06 12:45:15;;;;;;;;;;;;;;;29.34;37.68;94801.84;5000376;28;9411;-61
2022/07/06 12:48:04;;;;;;;;;;;;;;;29.37;37.55;94794.50;5014584;28;8855;-62
2022/07/06 12:50:46;;;;;;;;;;;;;;;29.36;38.44;94798.56;5004258;28;7405;-61
2022/07/06 12:53:40;;;;;;;;;;;;;;;29.37;37.80;94798.03;5005589;28;9062;-61
2022/07/06 12:56:12;;;;;;;;;;;;;;;29.37;37.50;94788.97;4995178;28;7247;-61
2022/07/06 12:59:02;;;;;;;;;;;;;;;29.39;37.54;94786.41;5012751;28;9293;-61
2022/07/06 13:01:30;;;;;;;;;;;;;;;29.41;36.83;94790.16;4998221;28;7245;-61
2022/07/06 13:04:16;;;;;;;;;;;;;;;29.40;37.46;94788.69;4995611;28;7227;-61
2022/07/06 13:06:42;;;;;;;;;;;;;;;29.41;37.41;94794.94;4991202;28;7002;-61
2022/07/06 13:09:08;;;;;;;;;;;;;;;29.41;36.31;94794.94;4990607;28;7264;-61
2022/07/06 13:11:34;;;;;;;;;;;;;;;29.43;36.29;94786.84;4993146;28;9031;-61
2022/07/06 13:14:00;;;;;;;;;;;;;;;29.43;36.75;94782.06;5011414;28;7221;-61
2022/07/06 13:16:34;;;;;;;;;;;;;;;29.45;36.80;94789.88;5006104;28;7054;-61
2022/07/06 13:19:01;;;;;;;;;;;;;;;29.45;36.85;94796.13;5015372;28;9024;-62
2022/07/06 13:21:28;;;;;;;;;;;;;;;29.44;36.02;94785.59;4996275;28;7143;-61
2022/07/06 13:23:53;;;;;;;;;;;;;;;29.45;36.61;94784.31;5012733;28;9070;-61
2022/07/06 13:26:22;;;;;;;;;;;;;;;29.48;36.31;94780.47;5008553;28;7164;-61